Weatherford, Texas
Current Conditions -  °F | °C
As of 10:53 PM on Monday 22 Dec 2014 (Local Time) from KMWL Reporting Station
Overcast Overcast  
Wind Chill: 45°   Ceiling: 9500
Heat Index: 48°   Visibility: 10mi
Dew Point: 42°   Wind: 6mph
Humidity: 80%   Direction: 340°NNW
Pressure: 29.73"   Gusts: NA
Location:  32.76°N, 97.8°W
Report Text: KMWL 230453Z AUTO 34005KT 10SM OVC095 09/06 A2973 RMK AO2 SLP061 T00890056
Loading
Personal Weather Stations






























Interactive Weather Map New forecast layout! Learn more

10-Day Weather Forecast

Advertisements
Track Severe Weather on mobile